sensor_id;sensor_type;location;lat;lon;timestamp;temperature;humidity
34768;DHT22;21755;43.608;1.236;2024-03-23T00:55:56;16.20;99.90
34768;DHT22;21755;43.608;1.236;2024-03-23T00:58:22;16.20;99.90
34768;DHT22;21755;43.608;1.236;2024-03-23T01:00:48;16.20;99.90
34768;DHT22;21755;43.608;1.236;2024-03-23T01:03:14;16.20;99.90
34768;DHT22;21755;43.608;1.236;2024-03-23T01:05:40;16.10;99.90
34768;DHT22;21755;43.608;1.236;2024-03-23T01:08:06;16.10;99.90
34768;DHT22;21755;43.608;1.236;2024-03-23T01:10:32;16.10;99.90
34768;DHT22;21755;43.608;1.236;2024-03-23T01:12:58;16.10;99.90
34768;DHT22;21755;43.608;1.236;2024-03-23T01:15:23;16.10;99.90
34768;DHT22;21755;43.608;1.236;2024-03-23T01:17:49;16.10;99.90
34768;DHT22;21755;43.608;1.236;2024-03-23T01:20:15;16.10;99.90
34768;DHT22;21755;43.608;1.236;2024-03-23T01:22:42;16.20;99.90
34768;DHT22;21755;43.608;1.236;2024-03-23T01:25:08;16.10;99.90
34768;DHT22;21755;43.608;1.236;2024-03-23T01:27:34;16.10;99.90
34768;DHT22;21755;43.608;1.236;2024-03-23T01:30:00;16.10;99.90
34768;DHT22;21755;43.608;1.236;2024-03-23T01:32:25;16.10;99.90
34768;DHT22;21755;43.608;1.236;2024-03-23T01:34:51;16.10;99.90
34768;DHT22;21755;43.608;1.236;2024-03-23T01:37:17;16.10;99.90
34768;DHT22;21755;43.608;1.236;2024-03-23T01:39:43;16.10;99.90
34768;DHT22;21755;43.608;1.236;2024-03-23T01:42:09;16.10;99.90
34768;DHT22;21755;43.608;1.236;2024-03-23T01:44:35;16.10;99.90
34768;DHT22;21755;43.608;1.236;2024-03-23T01:47:01;16.00;99.90
34768;DHT22;21755;43.608;1.236;2024-03-23T01:49:27;16.00;99.90
34768;DHT22;21755;43.608;1.236;2024-03-23T01:51:53;16.00;99.90
34768;DHT22;21755;43.608;1.236;2024-03-23T01:54:19;16.00;99.90
34768;DHT22;21755;43.608;1.236;2024-03-23T01:56:45;16.00;99.90
34768;DHT22;21755;43.608;1.236;2024-03-23T01:59:11;16.00;99.90
34768;DHT22;21755;43.608;1.236;2024-03-23T02:01:37;16.00;99.90
34768;DHT22;21755;43.608;1.236;2024-03-23T02:04:03;16.00;99.90
34768;DHT22;21755;43.608;1.236;2024-03-23T02:06:29;16.00;99.90
34768;DHT22;21755;43.608;1.236;2024-03-23T02:08:55;16.00;99.90
34768;DHT22;21755;43.608;1.236;2024-03-23T02:11:22;15.90;99.90
34768;DHT22;21755;43.608;1.236;2024-03-23T02:13:47;15.90;99.90
34768;DHT22;21755;43.608;1.236;2024-03-23T02:16:13;15.90;99.90
34768;DHT22;21755;43.608;1.236;2024-03-23T02:18:39;15.90;99.90
34768;DHT22;21755;43.608;1.236;2024-03-23T02:21:05;15.90;99.90
34768;DHT22;21755;43.608;1.236;2024-03-23T02:23:31;15.90;99.90
34768;DHT22;21755;43.608;1.236;2024-03-23T02:25:57;15.90;99.90
34768;DHT22;21755;43.608;1.236;2024-03-23T02:28:23;15.90;99.90
34768;DHT22;21755;43.608;1.236;2024-03-23T02:30:49;15.80;99.90
34768;DHT22;21755;43.608;1.236;2024-03-23T02:33:16;15.80;99.90
34768;DHT22;21755;43.608;1.236;2024-03-23T02:35:42;15.80;99.90
34768;DHT22;21755;43.608;1.236;2024-03-23T02:38:09;15.80;99.90
34768;DHT22;21755;43.608;1.236;2024-03-23T02:40:34;15.80;99.90
34768;DHT22;21755;43.608;1.236;2024-03-23T02:43:03;15.70;99.90
34768;DHT22;21755;43.608;1.236;2024-03-23T02:45:29;15.70;99.90
34768;DHT22;21755;43.608;1.236;2024-03-23T02:47:55;15.70;99.90
34768;DHT22;21755;43.608;1.236;2024-03-23T02:50:21;15.70;99.90
34768;DHT22;21755;43.608;1.236;2024-03-23T02:52:47;15.70;99.90
34768;DHT22;21755;43.608;1.236;2024-03-23T02:55:14;15.70;99.90
34768;DHT22;21755;43.608;1.236;2024-03-23T02:57:40;15.60;99.90
34768;DHT22;21755;43.608;1.236;2024-03-23T03:00:06;15.60;99.90
34768;DHT22;21755;43.608;1.236;2024-03-23T03:02:33;15.60;99.90
34768;DHT22;21755;43.608;1.236;2024-03-23T03:04:59;15.60;99.90
34768;DHT22;21755;43.608;1.236;2024-03-23T03:07:25;15.60;99.90
34768;DHT22;21755;43.608;1.236;2024-03-23T03:09:51;15.50;99.90
34768;DHT22;21755;43.608;1.236;2024-03-23T03:12:17;15.50;99.90
34768;DHT22;21755;43.608;1.236;2024-03-23T03:14:43;15.50;99.90
34768;DHT22;21755;43.608;1.236;2024-03-23T03:17:09;15.50;99.90
34768;DHT22;21755;43.608;1.236;2024-03-23T03:19:35;15.50;99.90
34768;DHT22;21755;43.608;1.236;2024-03-23T03:22:00;15.40;99.90
34768;DHT22;21755;43.608;1.236;2024-03-23T03:24:26;15.40;99.90
34768;DHT22;21755;43.608;1.236;2024-03-23T03:26:52;15.40;99.90
34768;DHT22;21755;43.608;1.236;2024-03-23T03:29:18;15.30;99.90
34768;DHT22;21755;43.608;1.236;2024-03-23T03:31:44;15.30;99.90
34768;DHT22;21755;43.608;1.236;2024-03-23T03:34:10;15.30;99.90
34768;DHT22;21755;43.608;1.236;2024-03-23T03:36:36;15.20;99.90
34768;DHT22;21755;43.608;1.236;2024-03-23T03:39:02;15.20;99.90
34768;DHT22;21755;43.608;1.236;2024-03-23T03:41:31;15.20;99.90
34768;DHT22;21755;43.608;1.236;2024-03-23T03:43:58;15.20;99.90
34768;DHT22;21755;43.608;1.236;2024-03-23T03:46:28;15.10;99.90
34768;DHT22;21755;43.608;1.236;2024-03-23T03:48:54;15.10;99.90
34768;DHT22;21755;43.608;1.236;2024-03-23T03:51:20;15.10;99.90
34768;DHT22;21755;43.608;1.236;2024-03-23T03:53:46;15.10;99.90
34768;DHT22;21755;43.608;1.236;2024-03-23T03:56:12;15.00;99.90
34768;DHT22;21755;43.608;1.236;2024-03-23T03:58:38;15.00;99.90
34768;DHT22;21755;43.608;1.236;2024-03-23T04:01:05;14.90;99.90
34768;DHT22;21755;43.608;1.236;2024-03-23T04:03:31;14.90;99.90
34768;DHT22;21755;43.608;1.236;2024-03-23T04:05:57;14.90;99.90
34768;DHT22;21755;43.608;1.236;2024-03-23T04:08:23;14.90;99.90
34768;DHT22;21755;43.608;1.236;2024-03-23T04:10:49;14.90;99.90
34768;DHT22;21755;43.608;1.236;2024-03-23T04:13:15;14.80;99.90
34768;DHT22;21755;43.608;1.236;2024-03-23T04:15:42;14.80;99.90
34768;DHT22;21755;43.608;1.236;2024-03-23T04:18:08;14.80;99.90
34768;DHT22;21755;43.608;1.236;2024-03-23T04:20:34;14.80;99.90
34768;DHT22;21755;43.608;1.236;2024-03-23T04:23:00;14.80;99.90
34768;DHT22;21755;43.608;1.236;2024-03-23T04:25:26;14.80;99.90
34768;DHT22;21755;43.608;1.236;2024-03-23T04:27:52;14.80;99.90
34768;DHT22;21755;43.608;1.236;2024-03-23T04:30:18;14.80;99.90
34768;DHT22;21755;43.608;1.236;2024-03-23T04:32:45;14.70;99.90
34768;DHT22;21755;43.608;1.236;2024-03-23T04:35:10;14.70;99.90
34768;DHT22;21755;43.608;1.236;2024-03-23T04:37:39;14.70;99.90
34768;DHT22;21755;43.608;1.236;2024-03-23T04:40:08;14.70;99.90
34768;DHT22;21755;43.608;1.236;2024-03-23T04:42:34;14.70;99.90
34768;DHT22;21755;43.608;1.236;2024-03-23T04:45:00;14.70;99.90
34768;DHT22;21755;43.608;1.236;2024-03-23T04:47:26;14.70;99.90
34768;DHT22;21755;43.608;1.236;2024-03-23T04:49:52;14.70;99.90
34768;DHT22;21755;43.608;1.236;2024-03-23T04:52:19;14.60;99.90
34768;DHT22;21755;43.608;1.236;2024-03-23T04:54:45;14.60;99.90
34768;DHT22;21755;43.608;1.236;2024-03-23T04:57:11;14.60;99.90
34768;DHT22;21755;43.608;1.236;2024-03-23T04:59:37;14.60;99.90
34768;DHT22;21755;43.608;1.236;2024-03-23T05:02:03;14.60;99.90
34768;DHT22;21755;43.608;1.236;2024-03-23T05:04:29;14.60;99.90
34768;DHT22;21755;43.608;1.236;2024-03-23T05:06:55;14.50;99.90
34768;DHT22;21755;43.608;1.236;2024-03-23T05:09:21;14.50;99.90
34768;DHT22;21755;43.608;1.236;2024-03-23T05:11:47;14.50;99.90
34768;DHT22;21755;43.608;1.236;2024-03-23T05:14:14;14.50;99.90
34768;DHT22;21755;43.608;1.236;2024-03-23T05:16:40;14.40;99.90
34768;DHT22;21755;43.608;1.236;2024-03-23T05:19:06;14.50;99.90
34768;DHT22;21755;43.608;1.236;2024-03-23T05:21:32;14.50;99.90
34768;DHT22;21755;43.608;1.236;2024-03-23T05:23:58;14.40;99.90
34768;DHT22;21755;43.608;1.236;2024-03-23T05:26:24;14.40;99.90
34768;DHT22;21755;43.608;1.236;2024-03-23T05:28:50;14.40;99.90
34768;DHT22;21755;43.608;1.236;2024-03-23T05:31:26;14.40;99.90
34768;DHT22;21755;43.608;1.236;2024-03-23T05:33:52;14.40;99.90
34768;DHT22;21755;43.608;1.236;2024-03-23T05:36:18;14.40;99.90
34768;DHT22;21755;43.608;1.236;2024-03-23T05:38:44;14.40;99.90
34768;DHT22;21755;43.608;1.236;2024-03-23T05:41:10;14.40;99.90
34768;DHT22;21755;43.608;1.236;2024-03-23T05:43:36;14.40;99.90
34768;DHT22;21755;43.608;1.236;2024-03-23T05:46:02;14.40;99.90
34768;DHT22;21755;43.608;1.236;2024-03-23T05:48:30;14.40;99.90
34768;DHT22;21755;43.608;1.236;2024-03-23T05:50:56;14.40;99.90
34768;DHT22;21755;43.608;1.236;2024-03-23T05:53:23;14.40;99.90
34768;DHT22;21755;43.608;1.236;2024-03-23T05:55:49;14.40;99.90
34768;DHT22;21755;43.608;1.236;2024-03-23T05:58:17;14.40;99.90
34768;DHT22;21755;43.608;1.236;2024-03-23T06:00:43;14.40;99.90
34768;DHT22;21755;43.608;1.236;2024-03-23T06:03:10;14.40;99.90
34768;DHT22;21755;43.608;1.236;2024-03-23T06:05:37;14.40;99.90
34768;DHT22;21755;43.608;1.236;2024-03-23T06:08:03;14.30;99.90
34768;DHT22;21755;43.608;1.236;2024-03-23T06:10:29;14.30;99.90
34768;DHT22;21755;43.608;1.236;2024-03-23T06:12:55;14.30;99.90
34768;DHT22;21755;43.608;1.236;2024-03-23T06:15:21;14.30;99.90
34768;DHT22;21755;43.608;1.236;2024-03-23T06:17:48;14.20;99.90
34768;DHT22;21755;43.608;1.236;2024-03-23T06:20:14;14.20;99.90
34768;DHT22;21755;43.608;1.236;2024-03-23T06:22:40;14.20;99.90
34768;DHT22;21755;43.608;1.236;2024-03-23T06:25:07;14.20;99.90
34768;DHT22;21755;43.608;1.236;2024-03-23T06:27:33;14.20;99.90
34768;DHT22;21755;43.608;1.236;2024-03-23T06:29:59;14.20;99.90
34768;DHT22;21755;43.608;1.236;2024-03-23T06:32:25;14.20;99.90
34768;DHT22;21755;43.608;1.236;2024-03-23T06:34:51;14.20;99.90
34768;DHT22;21755;43.608;1.236;2024-03-23T06:37:17;14.20;99.90
34768;DHT22;21755;43.608;1.236;2024-03-23T06:39:45;14.20;99.90
34768;DHT22;21755;43.608;1.236;2024-03-23T06:42:11;14.20;99.90
34768;DHT22;21755;43.608;1.236;2024-03-23T06:44:37;14.20;99.90
34768;DHT22;21755;43.608;1.236;2024-03-23T06:47:03;14.20;99.90
34768;DHT22;21755;43.608;1.236;2024-03-23T06:49:29;14.20;99.90
34768;DHT22;21755;43.608;1.236;2024-03-23T06:51:55;14.20;99.90
34768;DHT22;21755;43.608;1.236;2024-03-23T06:54:21;14.20;99.90
34768;DHT22;21755;43.608;1.236;2024-03-23T06:56:47;14.20;99.90
34768;DHT22;21755;43.608;1.236;2024-03-23T06:59:12;14.20;99.90
34768;DHT22;21755;43.608;1.236;2024-03-23T07:01:38;14.10;99.90
34768;DHT22;21755;43.608;1.236;2024-03-23T07:04:05;14.10;99.90
34768;DHT22;21755;43.608;1.236;2024-03-23T07:06:31;14.10;99.90
34768;DHT22;21755;43.608;1.236;2024-03-23T07:08:57;14.10;99.90
34768;DHT22;21755;43.608;1.236;2024-03-23T07:11:23;14.10;99.90
34768;DHT22;21755;43.608;1.236;2024-03-23T07:13:50;14.10;99.90
34768;DHT22;21755;43.608;1.236;2024-03-23T07:16:17;14.10;99.90
34768;DHT22;21755;43.608;1.236;2024-03-23T07:18:43;14.10;99.90
34768;DHT22;21755;43.608;1.236;2024-03-23T07:21:09;14.10;99.90
34768;DHT22;21755;43.608;1.236;2024-03-23T07:23:35;14.10;99.90
34768;DHT22;21755;43.608;1.236;2024-03-23T07:26:05;14.10;99.90
34768;DHT22;21755;43.608;1.236;2024-03-23T07:28:33;14.00;99.90
34768;DHT22;21755;43.608;1.236;2024-03-23T07:31:06;14.00;99.90
34768;DHT22;21755;43.608;1.236;2024-03-23T07:33:35;14.00;99.90
34768;DHT22;21755;43.608;1.236;2024-03-23T07:36:01;14.00;99.90
34768;DHT22;21755;43.608;1.236;2024-03-23T07:38:28;14.00;99.90
34768;DHT22;21755;43.608;1.236;2024-03-23T07:41:23;13.90;99.90
34768;DHT22;21755;43.608;1.236;2024-03-23T07:43:49;13.90;99.90
34768;DHT22;21755;43.608;1.236;2024-03-23T07:46:16;13.90;99.90
34768;DHT22;21755;43.608;1.236;2024-03-23T07:48:42;13.90;99.90
34768;DHT22;21755;43.608;1.236;2024-03-23T07:51:18;13.80;99.90
34768;DHT22;21755;43.608;1.236;2024-03-23T07:53:45;13.80;99.90
34768;DHT22;21755;43.608;1.236;2024-03-23T07:56:12;13.80;99.90
34768;DHT22;21755;43.608;1.236;2024-03-23T07:58:41;13.70;99.90
34768;DHT22;21755;43.608;1.236;2024-03-23T08:01:11;13.70;99.90
34768;DHT22;21755;43.608;1.236;2024-03-23T08:03:40;13.70;99.90
34768;DHT22;21755;43.608;1.236;2024-03-23T08:06:13;13.70;99.90
34768;DHT22;21755;43.608;1.236;2024-03-23T08:08:41;13.70;99.90
34768;DHT22;21755;43.608;1.236;2024-03-23T08:11:07;13.70;99.90
34768;DHT22;21755;43.608;1.236;2024-03-23T08:13:34;13.60;99.90
34768;DHT22;21755;43.608;1.236;2024-03-23T08:16:01;13.60;99.90
34768;DHT22;21755;43.608;1.236;2024-03-23T08:18:27;13.60;99.90
34768;DHT22;21755;43.608;1.236;2024-03-23T08:23:30;13.50;99.90
34768;DHT22;21755;43.608;1.236;2024-03-23T08:26:06;13.50;99.90
34768;DHT22;21755;43.608;1.236;2024-03-23T08:28:33;12.60;99.90
34768;DHT22;21755;43.608;1.236;2024-03-23T08:31:10;12.00;99.90
34768;DHT22;21755;43.608;1.236;2024-03-23T08:33:37;11.70;99.90
34768;DHT22;21755;43.608;1.236;2024-03-23T08:36:06;11.70;99.90
34768;DHT22;21755;43.608;1.236;2024-03-23T08:38:32;11.60;99.90
34768;DHT22;21755;43.608;1.236;2024-03-23T08:41:03;11.50;99.90
34768;DHT22;21755;43.608;1.236;2024-03-23T08:43:31;11.40;99.90
34768;DHT22;21755;43.608;1.236;2024-03-23T08:46:14;11.30;99.90
34768;DHT22;21755;43.608;1.236;2024-03-23T08:48:45;11.20;99.90
34768;DHT22;21755;43.608;1.236;2024-03-23T08:51:13;11.20;99.90
34768;DHT22;21755;43.608;1.236;2024-03-23T08:53:40;11.20;99.90
34768;DHT22;21755;43.608;1.236;2024-03-23T08:56:07;11.30;99.90
34768;DHT22;21755;43.608;1.236;2024-03-23T08:58:34;11.30;99.90
34768;DHT22;21755;43.608;1.236;2024-03-23T09:01:10;11.40;99.90
34768;DHT22;21755;43.608;1.236;2024-03-23T09:03:36;11.50;99.90
34768;DHT22;21755;43.608;1.236;2024-03-23T09:06:13;11.50;99.90
34768;DHT22;21755;43.608;1.236;2024-03-23T09:08:39;11.40;99.90
34768;DHT22;21755;43.608;1.236;2024-03-23T09:11:10;11.50;99.90
34768;DHT22;21755;43.608;1.236;2024-03-23T09:13:37;11.40;99.90
34768;DHT22;21755;43.608;1.236;2024-03-23T09:16:05;11.60;99.90
34768;DHT22;21755;43.608;1.236;2024-03-23T09:18:35;11.70;99.90
34768;DHT22;21755;43.608;1.236;2024-03-23T09:21:11;11.90;99.90
34768;DHT22;21755;43.608;1.236;2024-03-23T09:23:38;11.80;99.90
34768;DHT22;21755;43.608;1.236;2024-03-23T09:26:05;11.80;99.90
34768;DHT22;21755;43.608;1.236;2024-03-23T09:28:33;11.90;99.90
34768;DHT22;21755;43.608;1.236;2024-03-23T09:31:08;12.00;99.90
34768;DHT22;21755;43.608;1.236;2024-03-23T09:33:35;11.90;99.90
34768;DHT22;21755;43.608;1.236;2024-03-23T09:36:05;11.90;99.90
34768;DHT22;21755;43.608;1.236;2024-03-23T09:38:31;11.90;99.90
34768;DHT22;21755;43.608;1.236;2024-03-23T09:40:58;11.90;99.90
34768;DHT22;21755;43.608;1.236;2024-03-23T09:43:25;11.80;99.70
34768;DHT22;21755;43.608;1.236;2024-03-23T09:45:51;11.80;99.90
34768;DHT22;21755;43.608;1.236;2024-03-23T09:48:17;11.90;99.90
34768;DHT22;21755;43.608;1.236;2024-03-23T09:50:44;11.90;99.90
34768;DHT22;21755;43.608;1.236;2024-03-23T09:53:12;11.80;97.40
34768;DHT22;21755;43.608;1.236;2024-03-23T09:55:43;11.70;95.70
34768;DHT22;21755;43.608;1.236;2024-03-23T09:58:13;11.80;96.20
34768;DHT22;21755;43.608;1.236;2024-03-23T10:00:39;12.10;95.80
34768;DHT22;21755;43.608;1.236;2024-03-23T10:03:05;12.30;96.50
34768;DHT22;21755;43.608;1.236;2024-03-23T10:05:32;12.40;95.30
34768;DHT22;21755;43.608;1.236;2024-03-23T10:10:42;12.30;95.90
34768;DHT22;21755;43.608;1.236;2024-03-23T10:13:08;12.30;95.60
34768;DHT22;21755;43.608;1.236;2024-03-23T10:15:35;12.50;97.10
34768;DHT22;21755;43.608;1.236;2024-03-23T10:18:20;12.50;95.70
34768;DHT22;21755;43.608;1.236;2024-03-23T10:21:19;12.50;96.00
34768;DHT22;21755;43.608;1.236;2024-03-23T10:23:45;12.50;96.00
34768;DHT22;21755;43.608;1.236;2024-03-23T10:26:23;12.60;97.70
34768;DHT22;21755;43.608;1.236;2024-03-23T10:28:57;12.60;98.10
34768;DHT22;21755;43.608;1.236;2024-03-23T10:31:33;12.60;96.70
34768;DHT22;21755;43.608;1.236;2024-03-23T10:34:02;12.70;97.80
34768;DHT22;21755;43.608;1.236;2024-03-23T10:39:01;12.80;96.00
34768;DHT22;21755;43.608;1.236;2024-03-23T10:41:32;13.00;96.50
34768;DHT22;21755;43.608;1.236;2024-03-23T10:43:58;13.20;93.60
34768;DHT22;21755;43.608;1.236;2024-03-23T10:46:27;13.10;92.80
34768;DHT22;21755;43.608;1.236;2024-03-23T10:48:53;13.10;94.40
34768;DHT22;21755;43.608;1.236;2024-03-23T10:51:19;13.00;93.00
34768;DHT22;21755;43.608;1.236;2024-03-23T10:53:45;12.90;93.20
34768;DHT22;21755;43.608;1.236;2024-03-23T10:56:12;12.80;93.30
34768;DHT22;21755;43.608;1.236;2024-03-23T10:58:42;12.80;93.80
34768;DHT22;21755;43.608;1.236;2024-03-23T11:01:15;13.10;94.50
34768;DHT22;21755;43.608;1.236;2024-03-23T11:03:45;13.10;92.80
34768;DHT22;21755;43.608;1.236;2024-03-23T11:06:11;13.00;90.60
34768;DHT22;21755;43.608;1.236;2024-03-23T11:08:57;13.10;91.80
34768;DHT22;21755;43.608;1.236;2024-03-23T11:11:24;13.10;92.60
34768;DHT22;21755;43.608;1.236;2024-03-23T11:13:51;13.10;92.10
34768;DHT22;21755;43.608;1.236;2024-03-23T11:16:26;13.10;92.30
34768;DHT22;21755;43.608;1.236;2024-03-23T11:21:59;13.40;92.60
34768;DHT22;21755;43.608;1.236;2024-03-23T11:24:25;13.40;92.90
34768;DHT22;21755;43.608;1.236;2024-03-23T11:26:51;13.50;92.90
34768;DHT22;21755;43.608;1.236;2024-03-23T11:29:17;13.60;90.70
34768;DHT22;21755;43.608;1.236;2024-03-23T11:31:51;13.50;91.80
34768;DHT22;21755;43.608;1.236;2024-03-23T11:34:18;13.70;91.40
34768;DHT22;21755;43.608;1.236;2024-03-23T11:36:45;13.80;91.70
34768;DHT22;21755;43.608;1.236;2024-03-23T11:39:18;13.90;90.20
34768;DHT22;21755;43.608;1.236;2024-03-23T11:41:52;13.70;92.50
34768;DHT22;21755;43.608;1.236;2024-03-23T11:44:19;13.60;91.00
34768;DHT22;21755;43.608;1.236;2024-03-23T11:46:46;13.70;91.70
34768;DHT22;21755;43.608;1.236;2024-03-23T11:49:28;13.70;91.00
34768;DHT22;21755;43.608;1.236;2024-03-23T11:51:56;13.70;90.70
34768;DHT22;21755;43.608;1.236;2024-03-23T11:54:25;13.70;90.50
34768;DHT22;21755;43.608;1.236;2024-03-23T11:57:01;13.70;90.90
34768;DHT22;21755;43.608;1.236;2024-03-23T11:59:40;14.00;91.90
34768;DHT22;21755;43.608;1.236;2024-03-23T12:02:13;14.10;90.50
34768;DHT22;21755;43.608;1.236;2024-03-23T12:04:42;14.10;89.10
34768;DHT22;21755;43.608;1.236;2024-03-23T12:07:15;14.00;89.90
34768;DHT22;21755;43.608;1.236;2024-03-23T12:09:41;14.10;91.20
34768;DHT22;21755;43.608;1.236;2024-03-23T12:12:17;14.20;89.60
34768;DHT22;21755;43.608;1.236;2024-03-23T12:17:14;14.30;86.10
34768;DHT22;21755;43.608;1.236;2024-03-23T12:19:40;14.20;86.90
34768;DHT22;21755;43.608;1.236;2024-03-23T12:22:11;14.20;87.50
34768;DHT22;21755;43.608;1.236;2024-03-23T12:24:37;14.30;87.70
34768;DHT22;21755;43.608;1.236;2024-03-23T12:27:04;14.30;87.80
34768;DHT22;21755;43.608;1.236;2024-03-23T12:29:34;14.30;85.30
34768;DHT22;21755;43.608;1.236;2024-03-23T12:32:01;14.20;84.50
34768;DHT22;21755;43.608;1.236;2024-03-23T12:34:28;14.20;88.10
34768;DHT22;21755;43.608;1.236;2024-03-23T12:36:54;14.30;85.70
34768;DHT22;21755;43.608;1.236;2024-03-23T12:39:20;14.30;90.20
34768;DHT22;21755;43.608;1.236;2024-03-23T12:41:47;14.30;85.80
34768;DHT22;21755;43.608;1.236;2024-03-23T12:44:13;14.20;86.80
34768;DHT22;21755;43.608;1.236;2024-03-23T12:46:41;14.20;87.50
34768;DHT22;21755;43.608;1.236;2024-03-23T12:49:07;14.30;85.70
34768;DHT22;21755;43.608;1.236;2024-03-23T12:51:34;14.40;87.50
34768;DHT22;21755;43.608;1.236;2024-03-23T12:54:00;14.50;87.00
34768;DHT22;21755;43.608;1.236;2024-03-23T12:56:26;14.40;88.00
34768;DHT22;21755;43.608;1.236;2024-03-23T12:58:56;14.40;89.80
34768;DHT22;21755;43.608;1.236;2024-03-23T13:01:26;14.50;90.10
34768;DHT22;21755;43.608;1.236;2024-03-23T13:03:52;14.60;89.60
34768;DHT22;21755;43.608;1.236;2024-03-23T13:06:18;14.70;90.10
34768;DHT22;21755;43.608;1.236;2024-03-23T13:08:45;14.80;89.00
34768;DHT22;21755;43.608;1.236;2024-03-23T13:11:12;14.90;91.20
34768;DHT22;21755;43.608;1.236;2024-03-23T13:13:38;15.10;90.40
34768;DHT22;21755;43.608;1.236;2024-03-23T13:16:05;15.20;90.50
34768;DHT22;21755;43.608;1.236;2024-03-23T13:18:31;15.30;90.90
34768;DHT22;21755;43.608;1.236;2024-03-23T13:20:58;15.10;88.90
34768;DHT22;21755;43.608;1.236;2024-03-23T13:23:24;15.20;89.40
34768;DHT22;21755;43.608;1.236;2024-03-23T13:25:51;15.10;88.10
34768;DHT22;21755;43.608;1.236;2024-03-23T13:28:19;14.90;84.70
34768;DHT22;21755;43.608;1.236;2024-03-23T13:30:52;14.80;89.50
34768;DHT22;21755;43.608;1.236;2024-03-23T13:33:18;14.80;87.60
34768;DHT22;21755;43.608;1.236;2024-03-23T13:38:16;14.70;90.10
34768;DHT22;21755;43.608;1.236;2024-03-23T13:43:20;14.80;90.40
34768;DHT22;21755;43.608;1.236;2024-03-23T13:45:52;15.00;90.10
34768;DHT22;21755;43.608;1.236;2024-03-23T13:48:20;15.10;88.30
34768;DHT22;21755;43.608;1.236;2024-03-23T13:50:46;15.00;88.80
34768;DHT22;21755;43.608;1.236;2024-03-23T13:53:15;15.00;88.50
34768;DHT22;21755;43.608;1.236;2024-03-23T13:55:47;15.00;90.90
34768;DHT22;21755;43.608;1.236;2024-03-23T13:58:16;15.10;90.00
34768;DHT22;21755;43.608;1.236;2024-03-23T14:00:42;15.10;88.60
34768;DHT22;21755;43.608;1.236;2024-03-23T14:03:09;15.10;89.40
34768;DHT22;21755;43.608;1.236;2024-03-23T14:05:36;15.10;88.50
34768;DHT22;21755;43.608;1.236;2024-03-23T14:08:02;15.20;88.30
34768;DHT22;21755;43.608;1.236;2024-03-23T14:10:27;15.20;89.50
34768;DHT22;21755;43.608;1.236;2024-03-23T14:12:53;15.20;90.10
34768;DHT22;21755;43.608;1.236;2024-03-23T14:15:19;15.20;90.30
34768;DHT22;21755;43.608;1.236;2024-03-23T14:17:45;15.30;89.20
34768;DHT22;21755;43.608;1.236;2024-03-23T14:20:11;15.30;90.70
34768;DHT22;21755;43.608;1.236;2024-03-23T14:22:38;15.30;89.70
34768;DHT22;21755;43.608;1.236;2024-03-23T14:25:07;15.20;88.90
34768;DHT22;21755;43.608;1.236;2024-03-23T14:27:33;15.20;90.40
34768;DHT22;21755;43.608;1.236;2024-03-23T14:30:04;15.10;87.50
34768;DHT22;21755;43.608;1.236;2024-03-23T14:32:34;15.10;90.30
34768;DHT22;21755;43.608;1.236;2024-03-23T14:35:01;15.20;90.80
34768;DHT22;21755;43.608;1.236;2024-03-23T14:37:27;15.30;88.70
34768;DHT22;21755;43.608;1.236;2024-03-23T14:39:55;15.30;88.70
34768;DHT22;21755;43.608;1.236;2024-03-23T14:42:22;15.40;90.20
34768;DHT22;21755;43.608;1.236;2024-03-23T14:44:49;15.50;87.10
34768;DHT22;21755;43.608;1.236;2024-03-23T14:47:16;15.40;89.60
34768;DHT22;21755;43.608;1.236;2024-03-23T14:49:43;15.40;90.10
34768;DHT22;21755;43.608;1.236;2024-03-23T14:52:18;15.30;90.00
34768;DHT22;21755;43.608;1.236;2024-03-23T14:54:45;15.20;89.70
34768;DHT22;21755;43.608;1.236;2024-03-23T14:57:11;15.20;88.50
34768;DHT22;21755;43.608;1.236;2024-03-23T14:59:37;15.20;90.00
34768;DHT22;21755;43.608;1.236;2024-03-23T15:02:04;15.30;90.10
34768;DHT22;21755;43.608;1.236;2024-03-23T15:04:30;15.30;87.10
34768;DHT22;21755;43.608;1.236;2024-03-23T15:06:56;15.30;87.70
34768;DHT22;21755;43.608;1.236;2024-03-23T15:09:22;15.20;89.20
34768;DHT22;21755;43.608;1.236;2024-03-23T15:11:48;15.20;86.70
34768;DHT22;21755;43.608;1.236;2024-03-23T15:14:13;15.20;87.80
34768;DHT22;21755;43.608;1.236;2024-03-23T15:16:39;15.30;87.00
34768;DHT22;21755;43.608;1.236;2024-03-23T15:19:08;15.30;88.80
34768;DHT22;21755;43.608;1.236;2024-03-23T15:21:34;15.40;89.40
34768;DHT22;21755;43.608;1.236;2024-03-23T15:24:00;15.40;88.10
34768;DHT22;21755;43.608;1.236;2024-03-23T15:26:26;15.50;87.80
34768;DHT22;21755;43.608;1.236;2024-03-23T15:28:51;15.40;87.30
34768;DHT22;21755;43.608;1.236;2024-03-23T15:31:24;15.40;85.60
34768;DHT22;21755;43.608;1.236;2024-03-23T15:33:50;15.30;86.40
34768;DHT22;21755;43.608;1.236;2024-03-23T15:36:16;15.30;86.80
34768;DHT22;21755;43.608;1.236;2024-03-23T15:38:42;15.40;87.60
34768;DHT22;21755;43.608;1.236;2024-03-23T15:41:09;15.40;86.60
34768;DHT22;21755;43.608;1.236;2024-03-23T15:43:35;15.30;85.20
34768;DHT22;21755;43.608;1.236;2024-03-23T15:46:03;15.40;87.00
34768;DHT22;21755;43.608;1.236;2024-03-23T15:48:30;15.40;86.40
34768;DHT22;21755;43.608;1.236;2024-03-23T15:51:02;15.40;86.80
34768;DHT22;21755;43.608;1.236;2024-03-23T15:53:30;15.40;87.90
34768;DHT22;21755;43.608;1.236;2024-03-23T15:55:57;15.30;84.60
34768;DHT22;21755;43.608;1.236;2024-03-23T15:58:24;15.30;84.30
34768;DHT22;21755;43.608;1.236;2024-03-23T16:01:03;15.20;85.70
34768;DHT22;21755;43.608;1.236;2024-03-23T16:03:30;15.20;87.40
34768;DHT22;21755;43.608;1.236;2024-03-23T16:06:01;15.20;84.70
34768;DHT22;21755;43.608;1.236;2024-03-23T16:08:29;15.20;85.20
34768;DHT22;21755;43.608;1.236;2024-03-23T16:11:00;15.20;86.00
34768;DHT22;21755;43.608;1.236;2024-03-23T16:13:26;15.10;85.50
34768;DHT22;21755;43.608;1.236;2024-03-23T16:16:01;15.10;87.20
34768;DHT22;21755;43.608;1.236;2024-03-23T16:18:36;15.10;84.40
34768;DHT22;21755;43.608;1.236;2024-03-23T16:21:04;15.10;85.00
34768;DHT22;21755;43.608;1.236;2024-03-23T16:23:34;15.00;85.70
34768;DHT22;21755;43.608;1.236;2024-03-23T16:26:00;14.90;84.60
34768;DHT22;21755;43.608;1.236;2024-03-23T16:28:28;14.90;86.10
34768;DHT22;21755;43.608;1.236;2024-03-23T16:30:58;14.90;85.40
34768;DHT22;21755;43.608;1.236;2024-03-23T16:33:25;14.80;85.30
34768;DHT22;21755;43.608;1.236;2024-03-23T16:36:02;14.60;84.80
34768;DHT22;21755;43.608;1.236;2024-03-23T16:38:32;14.60;86.30
34768;DHT22;21755;43.608;1.236;2024-03-23T16:41:03;14.60;86.20
34768;DHT22;21755;43.608;1.236;2024-03-23T16:43:33;14.50;86.00
34768;DHT22;21755;43.608;1.236;2024-03-23T16:46:05;14.60;86.00